Time;durP1;ratioP1;P1;durP2;ratioP2;P2;SDS_P1;SDS_P2;PMS_P1;PMS_P2;Temp;Humidity;BMP_temperature;BMP_pressure;BME280_temperature;BME280_humidity;BME280_pressure;Samples;Min_cycle;Max_cycle;Signal;HPM_P1;HPM_P2
2022/02/05 00:00:30;;;;;;;0.95;0.38;;;;;;;;;;5072853;28;20044;-51
2022/02/05 00:05:42;;;;;;;2.53;0.63;;;;;;;;;;5072649;28;20068;-49
2022/02/05 00:43:08;;;;;;;0.50;0.40;;;;;;;;;;5069251;28;20040;-49
2022/02/05 00:45:38;;;;;;;0.82;0.32;;;;;;;;;;5070382;28;20113;-49
2022/02/05 00:48:05;;;;;;;2.80;0.40;;;;;;;;;;5070848;28;20024;-52
2022/02/05 00:50:34;;;;;;;2.00;0.43;;;;;;;;;;5071164;28;20120;-54
2022/02/05 00:53:05;;;;;;;0.47;0.30;;;;;;;;;;5070511;28;20028;-54
2022/02/05 00:55:35;;;;;;;0.90;0.50;;;;;;;;;;5071762;28;20036;-54
2022/02/05 00:58:03;;;;;;;0.57;0.30;;;;;;;;;;5070515;28;20416;-53
2022/02/05 01:00:30;;;;;;;1.75;0.40;;;;;;;;;;5071551;28;20097;-52
2022/02/05 01:02:56;;;;;;;0.50;0.38;;;;;;;;;;5071048;28;20040;-55
2022/02/05 01:05:21;;;;;;;2.17;0.50;;;;;;;;;;5070819;28;20020;-55
2022/02/05 01:07:48;;;;;;;0.30;0.30;;;;;;;;;;5070646;28;20059;-51
2022/02/05 01:10:14;;;;;;;0.82;0.40;;;;;;;;;;5070410;28;20031;-54
2022/02/05 01:12:45;;;;;;;0.20;0.20;;;;;;;;;;5070937;28;20046;-53
2022/02/05 01:15:12;;;;;;;0.75;0.55;;;;;;;;;;5070353;28;20564;-51
2022/02/05 01:17:47;;;;;;;0.45;0.30;;;;;;;;;;5070944;28;20442;-53
2022/02/05 01:22:46;;;;;;;1.02;0.50;;;;;;;;;;5070794;28;20062;-50
2022/02/05 01:25:18;;;;;;;0.90;0.50;;;;;;;;;;5069974;28;20501;-53
2022/02/05 01:27:50;;;;;;;1.52;0.70;;;;;;;;;;5070773;28;20401;-54
2022/02/05 01:30:33;;;;;;;1.65;0.57;;;;;;;;;;5070569;28;20036;-52
2022/02/05 02:12:10;;;;;;;0.45;0.40;;;;;;;;;;5073502;28;20094;-53
2022/02/05 02:20:09;;;;;;;0.63;0.43;;;;;;;;;;5073978;28;20033;-56
2022/02/05 02:22:51;;;;;;;1.10;0.40;;;;;;;;;;5073854;28;20025;-55
2022/02/05 02:28:09;;;;;;;0.45;0.30;;;;;;;;;;5072975;28;19919;-56
2022/02/05 02:30:41;;;;;;;0.80;0.40;;;;;;;;;;5073815;28;20025;-55
2022/02/05 02:33:19;;;;;;;1.05;0.60;;;;;;;;;;5072662;28;20103;-54
2022/02/05 02:35:48;;;;;;;0.60;0.40;;;;;;;;;;5073987;28;20029;-54
2022/02/05 02:38:18;;;;;;;1.17;0.47;;;;;;;;;;5072820;28;20045;-54
2022/02/05 02:40:59;;;;;;;1.35;0.50;;;;;;;;;;5073948;28;20070;-54
2022/02/05 02:43:28;;;;;;;1.55;0.52;;;;;;;;;;5073580;28;20119;-56
2022/02/05 02:45:55;;;;;;;0.60;0.40;;;;;;;;;;5054868;28;20503;-56
2022/02/05 02:48:21;;;;;;;1.58;0.50;;;;;;;;;;5073229;28;20045;-54
2022/02/05 02:59:07;;;;;;;0.82;0.40;;;;;;;;;;5072618;28;20051;-54
2022/02/05 03:01:36;;;;;;;0.77;0.40;;;;;;;;;;5073337;28;20078;-53
2022/02/05 03:04:02;;;;;;;0.60;0.40;;;;;;;;;;5072702;28;20020;-54
2022/02/05 03:06:28;;;;;;;3.65;1.13;;;;;;;;;;5073279;28;20032;-55
2022/02/05 03:08:54;;;;;;;1.13;0.30;;;;;;;;;;5071100;28;20037;-53
2022/02/05 03:11:22;;;;;;;1.17;0.60;;;;;;;;;;5072953;28;20021;-54
2022/02/05 03:13:48;;;;;;;0.80;0.30;;;;;;;;;;5073326;28;20048;-54
2022/02/05 03:16:22;;;;;;;1.33;0.60;;;;;;;;;;5072358;28;20109;-53
2022/02/05 03:21:23;;;;;;;1.92;0.75;;;;;;;;;;5072785;28;20113;-54
2022/02/05 03:23:49;;;;;;;0.70;0.50;;;;;;;;;;5072794;28;20033;-57
2022/02/05 03:26:15;;;;;;;1.38;0.70;;;;;;;;;;5072143;28;20024;-54
2022/02/05 03:28:41;;;;;;;0.47;0.38;;;;;;;;;;5072513;28;20033;-53
2022/02/05 03:31:07;;;;;;;0.93;0.65;;;;;;;;;;5071740;28;20017;-54
2022/02/05 03:33:33;;;;;;;0.70;0.40;;;;;;;;;;5072551;28;20542;-54
2022/02/05 03:35:59;;;;;;;0.80;0.40;;;;;;;;;;5071926;28;20367;-53
2022/02/05 03:38:25;;;;;;;1.25;0.40;;;;;;;;;;5072510;28;20059;-53
2022/02/05 03:40:51;;;;;;;0.60;0.50;;;;;;;;;;5071811;28;20033;-56
2022/02/05 03:43:17;;;;;;;0.90;0.40;;;;;;;;;;5071951;28;20029;-53
2022/02/05 03:45:43;;;;;;;0.93;0.50;;;;;;;;;;5072055;28;20491;-53
2022/02/05 03:48:09;;;;;;;0.73;0.40;;;;;;;;;;5071689;28;20120;-56
2022/02/05 03:50:35;;;;;;;0.60;0.30;;;;;;;;;;5072275;28;20029;-53
2022/02/05 03:53:07;;;;;;;1.30;0.50;;;;;;;;;;5071816;28;20024;-53
2022/02/05 03:55:35;;;;;;;0.52;0.40;;;;;;;;;;5072323;28;20047;-54
2022/02/05 03:58:01;;;;;;;1.02;0.40;;;;;;;;;;5071529;28;20027;-53
2022/02/05 04:00:27;;;;;;;1.02;0.60;;;;;;;;;;5072342;28;20497;-56
2022/02/05 04:02:53;;;;;;;2.70;0.52;;;;;;;;;;5071272;28;20097;-56
2022/02/05 04:05:19;;;;;;;1.25;0.60;;;;;;;;;;5071820;28;20033;-56
2022/02/05 04:07:50;;;;;;;0.50;0.40;;;;;;;;;;5071976;28;20046;-54
2022/02/05 04:10:21;;;;;;;1.27;0.55;;;;;;;;;;5071359;28;20098;-54
2022/02/05 04:18:17;;;;;;;0.80;0.40;;;;;;;;;;5071621;28;20105;-52
2022/02/05 04:20:43;;;;;;;1.48;0.50;;;;;;;;;;5071533;28;20033;-52
2022/02/05 04:23:09;;;;;;;1.45;0.60;;;;;;;;;;5070499;28;20029;-52
2022/02/05 04:25:35;;;;;;;1.50;0.45;;;;;;;;;;5071571;28;20032;-53
2022/02/05 04:28:01;;;;;;;0.50;0.32;;;;;;;;;;5053262;28;20036;-52
2022/02/05 04:30:27;;;;;;;0.73;0.30;;;;;;;;;;5071805;28;20511;-53
2022/02/05 04:32:53;;;;;;;0.52;0.47;;;;;;;;;;5070307;28;20481;-56
2022/02/05 04:35:19;;;;;;;0.98;0.63;;;;;;;;;;5071159;28;20036;-53
2022/02/05 04:37:48;;;;;;;0.77;0.40;;;;;;;;;;5071442;28;20040;-54
2022/02/05 04:43:15;;;;;;;1.75;0.70;;;;;;;;;;5071010;28;20028;-53
2022/02/05 04:51:35;;;;;;;0.73;0.50;;;;;;;;;;5071286;28;20041;-56
2022/02/05 05:11:48;;;;;;;0.52;0.38;;;;;;;;;;5070905;28;20107;-54
2022/02/05 05:19:30;;;;;;;0.35;0.30;;;;;;;;;;5039707;28;20032;-54
2022/02/05 05:21:57;;;;;;;1.60;0.40;;;;;;;;;;5069658;28;20412;-55
2022/02/05 05:24:23;;;;;;;0.45;0.30;;;;;;;;;;5071147;28;20016;-54
2022/02/05 05:26:49;;;;;;;1.48;0.40;;;;;;;;;;5070213;28;20051;-57
2022/02/05 05:29:17;;;;;;;3.20;0.45;;;;;;;;;;5070162;28;20028;-53
2022/02/05 05:31:43;;;;;;;0.40;0.30;;;;;;;;;;5072415;28;20033;-54
2022/02/05 05:34:09;;;;;;;0.40;0.20;;;;;;;;;;5074350;28;20427;-54
2022/02/05 05:36:35;;;;;;;0.55;0.43;;;;;;;;;;5074906;28;20025;-54
2022/02/05 05:39:02;;;;;;;0.77;0.30;;;;;;;;;;5074031;28;20024;-55
2022/02/05 05:41:29;;;;;;;1.30;0.60;;;;;;;;;;5075089;28;20211;-54
2022/02/05 05:46:46;;;;;;;0.55;0.40;;;;;;;;;;5074566;28;20075;-54
2022/02/05 05:49:15;;;;;;;0.65;0.32;;;;;;;;;;5073783;28;20664;-54
2022/02/05 05:51:41;;;;;;;1.02;0.60;;;;;;;;;;5074799;28;20033;-55
2022/02/05 05:54:07;;;;;;;1.67;0.75;;;;;;;;;;5073128;28;20020;-54
2022/02/05 05:56:34;;;;;;;1.35;0.40;;;;;;;;;;5074616;28;20028;-54
2022/02/05 05:59:01;;;;;;;1.25;0.40;;;;;;;;;;5073677;28;20118;-53
2022/02/05 06:01:27;;;;;;;1.10;0.50;;;;;;;;;;5074576;28;20021;-55
2022/02/05 06:03:53;;;;;;;0.63;0.40;;;;;;;;;;5073458;28;20097;-56
2022/02/05 06:06:19;;;;;;;1.85;0.40;;;;;;;;;;5074358;28;20540;-53
2022/02/05 06:08:45;;;;;;;1.27;0.47;;;;;;;;;;5074450;28;20147;-55
2022/02/05 06:11:11;;;;;;;0.80;0.70;;;;;;;;;;5073220;28;20158;-54
2022/02/05 06:13:37;;;;;;;0.52;0.40;;;;;;;;;;5056163;28;20483;-54
2022/02/05 06:16:08;;;;;;;1.20;0.50;;;;;;;;;;5073370;28;20115;-52
2022/02/05 06:18:34;;;;;;;0.57;0.40;;;;;;;;;;5074308;28;20027;-54
2022/02/05 06:21:00;;;;;;;1.15;0.30;;;;;;;;;;5073289;28;20028;-54
2022/02/05 06:23:25;;;;;;;0.70;0.40;;;;;;;;;;5073910;28;20428;-53
2022/02/05 06:25:52;;;;;;;0.73;0.40;;;;;;;;;;5073348;28;20026;-56
2022/02/05 06:28:18;;;;;;;0.60;0.35;;;;;;;;;;5073700;28;20029;-57
2022/02/05 06:30:44;;;;;;;0.65;0.50;;;;;;;;;;5073876;28;20055;-53
2022/02/05 06:33:10;;;;;;;1.55;0.45;;;;;;;;;;5072756;28;20032;-54
2022/02/05 06:35:36;;;;;;;1.00;0.38;;;;;;;;;;5073983;28;20025;-56
2022/02/05 06:38:03;;;;;;;0.93;0.73;;;;;;;;;;5073076;28;20125;-54
2022/02/05 06:40:29;;;;;;;0.60;0.50;;;;;;;;;;5073615;28;20546;-56
2022/02/05 06:42:55;;;;;;;0.75;0.45;;;;;;;;;;5072649;28;20024;-57
2022/02/05 06:45:21;;;;;;;1.70;0.50;;;;;;;;;;5073608;28;20035;-54
2022/02/05 06:47:47;;;;;;;0.93;0.57;;;;;;;;;;5073443;28;20070;-54
2022/02/05 06:50:14;;;;;;;1.02;0.57;;;;;;;;;;5072707;28;20036;-54
2022/02/05 06:52:43;;;;;;;1.15;0.50;;;;;;;;;;5073610;28;20086;-54
2022/02/05 06:55:09;;;;;;;0.57;0.30;;;;;;;;;;5072484;28;20595;-54
2022/02/05 06:57:35;;;;;;;0.82;0.40;;;;;;;;;;5073135;28;20074;-56
2022/02/05 07:00:02;;;;;;;1.70;0.40;;;;;;;;;;5072471;28;20032;-56
2022/02/05 07:02:28;;;;;;;0.65;0.38;;;;;;;;;;5073404;28;20020;-55
2022/02/05 07:04:54;;;;;;;0.45;0.38;;;;;;;;;;5071926;28;20039;-56
2022/02/05 07:07:19;;;;;;;0.95;0.50;;;;;;;;;;5072863;28;20552;-56
2022/02/05 07:09:46;;;;;;;0.70;0.40;;;;;;;;;;5073373;28;20107;-55
2022/02/05 07:12:12;;;;;;;0.57;0.40;;;;;;;;;;5072566;28;20021;-54
2022/02/05 07:14:59;;;;;;;0.55;0.40;;;;;;;;;;5072968;28;20021;-55
2022/02/05 07:20:05;;;;;;;1.52;0.60;;;;;;;;;;5072425;28;20043;-57
2022/02/05 07:22:45;;;;;;;0.80;0.40;;;;;;;;;;5073031;28;20488;-56
2022/02/05 07:30:22;;;;;;;1.38;0.50;;;;;;;;;;5072507;28;20077;-54
2022/02/05 07:32:48;;;;;;;1.13;0.70;;;;;;;;;;5072701;28;20095;-54
2022/02/05 07:35:14;;;;;;;0.47;0.40;;;;;;;;;;5072004;28;20032;-54
2022/02/05 07:37:40;;;;;;;0.63;0.40;;;;;;;;;;5072619;28;20044;-54
2022/02/05 07:40:06;;;;;;;0.88;0.40;;;;;;;;;;5071852;28;20070;-56
2022/02/05 07:42:32;;;;;;;0.70;0.38;;;;;;;;;;5072674;28;20420;-56
2022/02/05 07:44:58;;;;;;;1.38;0.40;;;;;;;;;;5059304;28;20021;-57
2022/02/05 07:47:26;;;;;;;1.80;0.85;;;;;;;;;;5070708;28;20396;-57
2022/02/05 07:49:52;;;;;;;3.17;0.60;;;;;;;;;;5054794;28;20044;-58
2022/02/05 07:52:18;;;;;;;1.30;0.50;;;;;;;;;;5071685;28;20372;-57
2022/02/05 07:54:44;;;;;;;6.95;0.73;;;;;;;;;;5071476;28;20389;-55
2022/02/05 07:57:10;;;;;;;1.60;0.90;;;;;;;;;;5071307;28;20052;-54
2022/02/05 07:59:36;;;;;;;1.00;0.40;;;;;;;;;;5071766;28;20060;-55
2022/02/05 08:02:02;;;;;;;1.33;0.57;;;;;;;;;;5071184;28;20025;-54
2022/02/05 08:04:28;;;;;;;1.85;0.82;;;;;;;;;;5072175;28;20025;-54
2022/02/05 08:06:57;;;;;;;4.38;0.90;;;;;;;;;;5071205;28;20024;-57
2022/02/05 08:09:29;;;;;;;0.82;0.50;;;;;;;;;;5071989;28;20028;-54
2022/02/05 08:12:01;;;;;;;2.58;0.57;;;;;;;;;;5071110;28;20025;-56
2022/02/05 08:14:28;;;;;;;0.52;0.35;;;;;;;;;;5071845;28;20438;-53
2022/02/05 08:17:02;;;;;;;2.15;0.70;;;;;;;;;;5057564;28;20021;-54
2022/02/05 08:19:28;;;;;;;1.55;0.47;;;;;;;;;;5051180;28;20030;-56
2022/02/05 08:21:54;;;;;;;2.55;0.52;;;;;;;;;;5050547;28;20028;-57
2022/02/05 08:24:20;;;;;;;1.15;0.68;;;;;;;;;;5051830;28;20483;-54
2022/02/05 08:26:46;;;;;;;5.90;1.55;;;;;;;;;;5067558;28;20077;-54
2022/02/05 08:29:14;;;;;;;1.55;0.40;;;;;;;;;;5070676;28;20021;-53
2022/02/05 08:31:42;;;;;;;1.63;0.52;;;;;;;;;;5071504;28;20159;-54
2022/02/05 08:34:08;;;;;;;2.13;0.52;;;;;;;;;;5071037;28;20473;-55
2022/02/05 08:36:57;;;;;;;1.15;0.60;;;;;;;;;;5071468;28;20099;-55
2022/02/05 08:39:23;;;;;;;1.30;0.40;;;;;;;;;;5071423;28;20075;-54
2022/02/05 08:41:50;;;;;;;1.67;0.68;;;;;;;;;;5071105;28;20056;-54
2022/02/05 08:44:16;;;;;;;0.85;0.40;;;;;;;;;;5070470;28;20020;-53
2022/02/05 08:46:42;;;;;;;0.90;0.70;;;;;;;;;;5070896;28;20111;-53
2022/02/05 08:49:09;;;;;;;1.73;0.90;;;;;;;;;;5070309;28;20040;-52
2022/02/05 08:51:35;;;;;;;1.25;0.57;;;;;;;;;;5071405;28;20025;-50
2022/02/05 08:54:01;;;;;;;1.20;0.50;;;;;;;;;;5070620;28;20489;-52
2022/02/05 08:56:27;;;;;;;1.05;0.43;;;;;;;;;;5070903;28;20033;-56
2022/02/05 08:58:55;;;;;;;0.98;0.40;;;;;;;;;;5070839;28;20060;-57
2022/02/05 09:01:29;;;;;;;0.75;0.40;;;;;;;;;;5071028;28;20028;-57
2022/02/05 09:06:31;;;;;;;1.15;0.60;;;;;;;;;;5070494;28;20032;-56
2022/02/05 09:11:53;;;;;;;0.55;0.50;;;;;;;;;;5055046;28;20116;-57
2022/02/05 09:16:51;;;;;;;1.95;0.55;;;;;;;;;;5061177;28;20112;-58
2022/02/05 09:19:17;;;;;;;1.15;0.60;;;;;;;;;;5058145;28;20025;-57
2022/02/05 09:21:43;;;;;;;1.10;0.60;;;;;;;;;;5070729;28;20033;-57
2022/02/05 09:24:10;;;;;;;1.58;0.70;;;;;;;;;;5052450;28;20483;-57
2022/02/05 09:26:38;;;;;;;1.20;0.60;;;;;;;;;;5070702;28;20033;-56
2022/02/05 09:29:12;;;;;;;3.65;0.60;;;;;;;;;;5070435;28;20056;-57
2022/02/05 09:31:38;;;;;;;0.68;0.32;;;;;;;;;;5070731;28;20024;-57
2022/02/05 09:34:05;;;;;;;0.85;0.52;;;;;;;;;;5069858;28;20028;-57
2022/02/05 09:36:31;;;;;;;2.03;0.60;;;;;;;;;;5070480;28;20077;-57
2022/02/05 09:38:57;;;;;;;1.63;0.50;;;;;;;;;;5069877;28;20469;-57
2022/02/05 09:41:24;;;;;;;2.35;0.73;;;;;;;;;;5070466;28;20052;-57
2022/02/05 09:43:50;;;;;;;1.90;0.70;;;;;;;;;;5070718;28;20028;-57
2022/02/05 09:46:18;;;;;;;1.50;0.95;;;;;;;;;;5069713;28;20052;-57
2022/02/05 09:48:45;;;;;;;2.75;0.55;;;;;;;;;;5070821;28;20028;-58
2022/02/05 09:51:17;;;;;;;2.45;0.45;;;;;;;;;;5069953;28;20291;-57
2022/02/05 09:53:50;;;;;;;2.17;0.50;;;;;;;;;;5070854;28;20362;-58
2022/02/05 09:56:17;;;;;;;2.63;0.80;;;;;;;;;;5070269;28;20032;-58
2022/02/05 09:58:43;;;;;;;2.75;0.70;;;;;;;;;;5070927;28;20113;-58
2022/02/05 10:01:14;;;;;;;2.33;0.47;;;;;;;;;;5069809;28;20025;-58
2022/02/05 10:03:42;;;;;;;3.47;0.70;;;;;;;;;;5070578;28;20025;-58
2022/02/05 10:06:12;;;;;;;1.48;0.55;;;;;;;;;;5069806;28;20282;-58
2022/02/05 10:08:39;;;;;;;2.70;0.40;;;;;;;;;;5070932;28;20052;-58
2022/02/05 10:11:05;;;;;;;2.40;0.50;;;;;;;;;;5069833;28;20124;-58
2022/02/05 10:13:32;;;;;;;1.25;0.52;;;;;;;;;;5070476;28;20029;-56
2022/02/05 10:15:58;;;;;;;1.35;0.50;;;;;;;;;;5069681;28;20489;-56
2022/02/05 10:18:30;;;;;;;1.80;0.50;;;;;;;;;;5072841;28;20033;-57
2022/02/05 10:20:56;;;;;;;;;;;;;;;;;;5073553;28;20033;-57
2022/02/05 10:23:22;;;;;;;2.05;1.00;;;;;;;;;;5073952;28;19912;-57
2022/02/05 10:25:49;;;;;;;1.15;0.50;;;;;;;;;;5073883;28;20427;-57
2022/02/05 10:28:16;;;;;;;2.25;0.50;;;;;;;;;;5073289;28;20020;-57
2022/02/05 10:30:47;;;;;;;0.68;0.50;;;;;;;;;;5073620;28;20031;-57
2022/02/05 10:33:23;;;;;;;1.33;0.63;;;;;;;;;;5072913;28;20612;-57
2022/02/05 10:38:51;;;;;;;0.90;0.60;;;;;;;;;;5073952;28;20055;-57
2022/02/05 10:44:15;;;;;;;1.33;0.43;;;;;;;;;;5072686;28;20037;-57
2022/02/05 10:46:44;;;;;;;3.40;0.80;;;;;;;;;;5073694;28;20509;-57
2022/02/05 10:49:11;;;;;;;1.38;0.70;;;;;;;;;;5072771;28;20043;-57
2022/02/05 10:51:42;;;;;;;1.55;0.88;;;;;;;;;;5072973;28;20027;-57
2022/02/05 10:54:16;;;;;;;1.85;0.50;;;;;;;;;;5072654;28;20032;-57
2022/02/05 10:57:02;;;;;;;1.70;0.77;;;;;;;;;;5073432;28;20531;-57
2022/02/05 11:00:00;;;;;;;3.67;1.05;;;;;;;;;;5073303;28;20028;-57
2022/02/05 11:05:33;;;;;;;1.92;0.88;;;;;;;;;;5073380;28;20051;-57
2022/02/05 11:07:59;;;;;;;1.38;0.55;;;;;;;;;;5073000;28;20115;-57
2022/02/05 11:21:22;;;;;;;1.38;0.50;;;;;;;;;;5072847;28;20503;-57
2022/02/05 11:23:59;;;;;;;1.92;0.65;;;;;;;;;;5072921;28;20030;-57
2022/02/05 11:26:25;;;;;;;1.92;0.60;;;;;;;;;;5073178;28;20039;-57
2022/02/05 11:28:53;;;;;;;1.20;0.43;;;;;;;;;;5071998;28;20052;-56
2022/02/05 11:31:31;;;;;;;5.97;0.65;;;;;;;;;;5072293;28;20118;-56
2022/02/05 11:34:19;;;;;;;1.42;0.47;;;;;;;;;;5071795;28;20107;-57
2022/02/05 11:36:46;;;;;;;1.40;0.50;;;;;;;;;;5072095;28;20039;-57
2022/02/05 11:39:18;;;;;;;1.17;0.65;;;;;;;;;;5072048;28;20037;-56
2022/02/05 11:41:45;;;;;;;0.60;0.47;;;;;;;;;;5072682;28;20071;-57
2022/02/05 11:44:18;;;;;;;3.13;0.70;;;;;;;;;;5071629;28;20016;-56
2022/02/05 11:47:03;;;;;;;1.23;0.40;;;;;;;;;;5072185;28;20409;-57
2022/02/05 11:49:48;;;;;;;1.00;0.47;;;;;;;;;;5072305;28;20028;-57
2022/02/05 11:52:34;;;;;;;1.30;0.68;;;;;;;;;;5071624;28;20036;-57
2022/02/05 11:55:01;;;;;;;2.35;0.70;;;;;;;;;;5071239;28;20480;-51
2022/02/05 11:57:43;;;;;;;0.88;0.45;;;;;;;;;;5071989;28;20016;-56
2022/02/05 12:00:18;;;;;;;2.63;0.95;;;;;;;;;;5059861;28;20411;-57
2022/02/05 12:02:53;;;;;;;0.70;0.40;;;;;;;;;;5071731;28;20462;-57
2022/02/05 12:05:20;;;;;;;2.63;0.70;;;;;;;;;;5071244;28;20132;-57
2022/02/05 12:07:59;;;;;;;1.10;0.40;;;;;;;;;;5071146;28;20032;-57
2022/02/05 12:10:38;;;;;;;1.52;0.75;;;;;;;;;;5071943;28;20527;-57
2022/02/05 12:13:15;;;;;;;0.68;0.40;;;;;;;;;;5070949;28;20048;-57
2022/02/05 12:15:41;;;;;;;1.17;0.55;;;;;;;;;;5071820;28;20037;-57
2022/02/05 12:18:15;;;;;;;0.40;0.40;;;;;;;;;;5071074;28;20028;-58
2022/02/05 12:20:56;;;;;;;1.83;0.88;;;;;;;;;;5053657;28;20090;-57
2022/02/05 12:25:58;;;;;;;0.57;0.40;;;;;;;;;;5071515;28;20036;-57
2022/02/05 12:28:30;;;;;;;1.35;0.80;;;;;;;;;;5071954;28;20110;-57
2022/02/05 12:30:59;;;;;;;0.85;0.45;;;;;;;;;;5070725;28;20017;-58
2022/02/05 12:33:26;;;;;;;0.82;0.60;;;;;;;;;;5071137;28;20508;-57
2022/02/05 12:35:52;;;;;;;1.65;0.50;;;;;;;;;;5071484;28;20078;-57
2022/02/05 12:38:19;;;;;;;0.60;0.38;;;;;;;;;;5070530;28;20068;-56
2022/02/05 12:40:49;;;;;;;0.75;0.40;;;;;;;;;;5070778;28;20112;-57
2022/02/05 12:43:19;;;;;;;0.82;0.50;;;;;;;;;;5070637;28;20025;-57
2022/02/05 12:46:05;;;;;;;0.60;0.50;;;;;;;;;;5071113;28;20047;-56
2022/02/05 12:48:31;;;;;;;0.95;0.40;;;;;;;;;;5071114;28;20029;-56
2022/02/05 12:50:58;;;;;;;0.65;0.47;;;;;;;;;;5070410;28;20063;-58
2022/02/05 12:53:32;;;;;;;1.08;0.50;;;;;;;;;;5070888;28;20025;-56
2022/02/05 12:56:17;;;;;;;0.77;0.40;;;;;;;;;;5070588;28;20036;-56
2022/02/05 12:58:52;;;;;;;1.23;0.47;;;;;;;;;;5071479;28;20017;-56
2022/02/05 13:01:18;;;;;;;0.85;0.50;;;;;;;;;;5070300;28;20055;-56
2022/02/05 13:03:44;;;;;;;0.65;0.40;;;;;;;;;;5071267;28;20025;-56
2022/02/05 13:06:17;;;;;;;1.67;0.80;;;;;;;;;;5070325;28;20024;-56
2022/02/05 13:08:52;;;;;;;1.10;0.50;;;;;;;;;;5071000;28;20107;-56
2022/02/05 13:11:19;;;;;;;2.00;0.40;;;;;;;;;;5070985;28;20024;-57
2022/02/05 13:13:53;;;;;;;2.05;0.50;;;;;;;;;;5071254;28;20020;-55
2022/02/05 13:16:22;;;;;;;1.25;0.43;;;;;;;;;;5050548;28;20474;-55
2022/02/05 13:18:55;;;;;;;0.73;0.60;;;;;;;;;;5069002;28;20044;-56
2022/02/05 13:27:09;;;;;;;1.63;0.73;;;;;;;;;;5071489;28;20550;-58
2022/02/05 13:29:56;;;;;;;0.80;0.40;;;;;;;;;;5071075;28;20044;-59
2022/02/05 13:35:09;;;;;;;0.73;0.30;;;;;;;;;;5073687;28;20035;-57
2022/02/05 13:37:49;;;;;;;1.00;0.40;;;;;;;;;;5074195;28;20473;-57
2022/02/05 13:40:18;;;;;;;1.40;0.47;;;;;;;;;;5070438;28;20284;-57
2022/02/05 13:42:48;;;;;;;2.97;0.68;;;;;;;;;;5071095;28;20051;-57
2022/02/05 13:45:24;;;;;;;1.38;0.50;;;;;;;;;;5070009;28;20518;-57
2022/02/05 13:47:53;;;;;;;1.75;0.77;;;;;;;;;;5070979;28;20036;-57
2022/02/05 13:50:28;;;;;;;3.88;0.73;;;;;;;;;;5070665;28;20064;-57
2022/02/05 13:53:00;;;;;;;0.73;0.30;;;;;;;;;;5072021;28;20462;-56
2022/02/05 13:55:27;;;;;;;2.85;0.70;;;;;;;;;;5074535;28;20056;-55
2022/02/05 13:57:57;;;;;;;1.95;0.68;;;;;;;;;;5074708;28;20036;-59
2022/02/05 14:00:25;;;;;;;3.40;0.85;;;;;;;;;;5074453;28;20028;-57
2022/02/05 14:02:58;;;;;;;3.35;1.00;;;;;;;;;;5074354;28;20050;-56
2022/02/05 14:05:24;;;;;;;3.72;0.95;;;;;;;;;;5074004;28;20138;-55
2022/02/05 14:07:50;;;;;;;4.88;1.00;;;;;;;;;;5074419;28;20028;-56
2022/02/05 14:10:17;;;;;;;2.70;0.68;;;;;;;;;;5073346;28;20631;-56
2022/02/05 14:12:47;;;;;;;4.03;0.85;;;;;;;;;;5074504;28;20079;-57
2022/02/05 14:15:13;;;;;;;4.05;1.30;;;;;;;;;;5073312;28;20047;-55
2022/02/05 14:17:40;;;;;;;14.98;8.23;;;;;;;;;;5074028;28;20025;-55
2022/02/05 14:20:07;;;;;;;8.23;4.85;;;;;;;;;;5073208;28;20104;-57
2022/02/05 14:22:36;;;;;;;8.57;5.35;;;;;;;;;;5074187;28;20105;-55
2022/02/05 14:25:17;;;;;;;10.50;5.10;;;;;;;;;;5072874;28;20025;-58
2022/02/05 14:28:05;;;;;;;8.30;5.00;;;;;;;;;;5073937;28;20120;-58
2022/02/05 14:30:32;;;;;;;8.20;4.95;;;;;;;;;;5073539;28;20063;-57
2022/02/05 14:33:01;;;;;;;9.98;4.45;;;;;;;;;;5072884;28;20028;-60
2022/02/05 14:35:48;;;;;;;9.90;5.72;;;;;;;;;;5073945;28;20070;-58
2022/02/05 14:40:59;;;;;;;8.90;4.00;;;;;;;;;;5072717;28;20140;-57
2022/02/05 14:43:25;;;;;;;7.00;3.83;;;;;;;;;;5073806;28;20032;-57
2022/02/05 14:45:53;;;;;;;6.88;3.72;;;;;;;;;;5073192;28;20035;-57
2022/02/05 14:48:19;;;;;;;7.25;3.55;;;;;;;;;;5070231;28;20024;-57
2022/02/05 14:50:45;;;;;;;5.38;3.03;;;;;;;;;;5073567;28;20063;-55
2022/02/05 14:53:11;;;;;;;7.78;2.90;;;;;;;;;;5073325;28;20056;-57
2022/02/05 14:55:37;;;;;;;7.38;2.92;;;;;;;;;;5073497;28;20478;-57
2022/02/05 14:58:03;;;;;;;4.25;2.47;;;;;;;;;;5072350;28;20069;-58
2022/02/05 15:00:29;;;;;;;6.15;2.30;;;;;;;;;;5073079;28;20056;-59
2022/02/05 15:02:55;;;;;;;5.68;2.53;;;;;;;;;;5072542;28;20024;-61
2022/02/05 15:05:23;;;;;;;7.70;2.65;;;;;;;;;;5070784;28;20021;-58
2022/02/05 15:07:49;;;;;;;3.22;2.00;;;;;;;;;;5072964;28;20028;-60
2022/02/05 15:10:17;;;;;;;9.25;2.58;;;;;;;;;;5053692;28;20015;-60
2022/02/05 15:12:43;;;;;;;4.75;2.35;;;;;;;;;;5072953;28;20091;-54
2022/02/05 15:15:21;;;;;;;3.85;2.00;;;;;;;;;;5071725;28;20020;-56
2022/02/05 15:17:47;;;;;;;5.53;2.50;;;;;;;;;;5072505;28;20473;-56
2022/02/05 15:20:14;;;;;;;5.20;1.85;;;;;;;;;;5071678;28;20235;-53
2022/02/05 15:22:40;;;;;;;3.70;1.98;;;;;;;;;;5071974;28;20025;-50
2022/02/05 15:25:06;;;;;;;4.38;2.17;;;;;;;;;;5052606;28;20147;-57
2022/02/05 15:27:32;;;;;;;7.05;2.10;;;;;;;;;;5072174;28;20112;-54
2022/02/05 15:29:58;;;;;;;3.50;1.92;;;;;;;;;;5067503;28;20482;-57
2022/02/05 15:32:24;;;;;;;4.03;1.70;;;;;;;;;;5071462;28;20146;-58
2022/02/05 15:34:50;;;;;;;4.55;1.70;;;;;;;;;;5072878;28;20032;-58
2022/02/05 15:37:21;;;;;;;2.22;1.20;;;;;;;;;;5071510;28;20052;-59
2022/02/05 15:45:14;;;;;;;4.57;2.40;;;;;;;;;;5071299;28;20039;-57
2022/02/05 15:47:43;;;;;;;3.17;1.73;;;;;;;;;;5072864;28;20028;-58
2022/02/05 15:50:11;;;;;;;4.45;1.55;;;;;;;;;;5071436;28;20029;-58
2022/02/05 15:52:37;;;;;;;6.00;1.60;;;;;;;;;;5072517;28;20355;-58
2022/02/05 15:55:04;;;;;;;3.67;1.77;;;;;;;;;;5071414;28;20031;-58
2022/02/05 15:58:19;;;;;;;3.67;1.70;;;;;;;;;;5072248;28;20016;-58
2022/02/05 16:00:31;;;;;;;3.35;1.60;;;;;;;;;;5057661;28;20062;-57
2022/02/05 16:03:00;;;;;;;4.70;1.73;;;;;;;;;;5053971;28;20525;-57
2022/02/05 16:05:26;;;;;;;2.08;1.50;;;;;;;;;;5071475;28;20052;-57
2022/02/05 16:07:52;;;;;;;2.55;1.40;;;;;;;;;;5072060;28;20036;-47
2022/02/05 16:10:18;;;;;;;4.20;1.63;;;;;;;;;;5070698;28;20923;-47
2022/02/05 16:12:48;;;;;;;4.90;1.85;;;;;;;;;;5071311;28;20031;-45
2022/02/05 16:15:16;;;;;;;3.25;1.30;;;;;;;;;;5070567;28;20016;-46
2022/02/05 16:17:43;;;;;;;5.18;1.70;;;;;;;;;;5072029;28;20017;-46
2022/02/05 16:20:09;;;;;;;4.78;1.73;;;;;;;;;;5070651;28;20393;-43
2022/02/05 16:22:37;;;;;;;4.07;1.83;;;;;;;;;;5072339;28;20033;-46
2022/02/05 16:25:04;;;;;;;7.00;2.17;;;;;;;;;;5071802;28;20021;-44
2022/02/05 16:27:30;;;;;;;7.65;1.95;;;;;;;;;;5071900;28;20094;-44
2022/02/05 16:29:58;;;;;;;7.15;1.85;;;;;;;;;;5068881;28;20401;-47
2022/02/05 16:32:24;;;;;;;2.75;1.35;;;;;;;;;;5062266;28;20024;-45
2022/02/05 16:34:53;;;;;;;6.15;2.53;;;;;;;;;;5059633;28;20039;-46
2022/02/05 16:37:19;;;;;;;6.75;2.38;;;;;;;;;;5066928;28;20135;-44
2022/02/05 16:39:46;;;;;;;3.05;1.73;;;;;;;;;;5068676;28;20032;-44
2022/02/05 16:42:12;;;;;;;4.78;1.40;;;;;;;;;;5065806;28;20025;-44
2022/02/05 16:44:38;;;;;;;4.65;1.40;;;;;;;;;;5065020;28;20021;-43
2022/02/05 16:47:06;;;;;;;4.35;1.73;;;;;;;;;;5069998;28;20078;-44
2022/02/05 16:49:32;;;;;;;7.15;1.63;;;;;;;;;;5065197;28;20020;-42
2022/02/05 16:51:58;;;;;;;6.22;1.92;;;;;;;;;;5065521;28;20036;-49
2022/02/05 16:54:26;;;;;;;4.55;1.35;;;;;;;;;;5062678;28;20032;-44
2022/02/05 16:56:52;;;;;;;6.38;1.92;;;;;;;;;;5063672;28;20350;-43
2022/02/05 16:59:18;;;;;;;4.72;2.10;;;;;;;;;;5060822;28;20024;-44
2022/02/05 17:01:44;;;;;;;5.68;1.80;;;;;;;;;;5063831;28;20434;-47
2022/02/05 17:04:10;;;;;;;7.10;1.98;;;;;;;;;;5060851;28;20044;-44
2022/02/05 17:06:37;;;;;;;4.90;1.63;;;;;;;;;;5059682;28;20462;-43
2022/02/05 17:09:05;;;;;;;8.27;2.05;;;;;;;;;;5063695;28;20527;-47
2022/02/05 17:11:31;;;;;;;7.65;2.50;;;;;;;;;;5059198;28;20078;-44
2022/02/05 17:13:57;;;;;;;3.95;1.52;;;;;;;;;;5061883;28;20027;-47
2022/02/05 17:16:23;;;;;;;7.32;1.40;;;;;;;;;;5063601;28;20401;-43
2022/02/05 17:18:49;;;;;;;6.32;1.40;;;;;;;;;;5067432;28;20028;-45
2022/02/05 17:21:15;;;;;;;8.27;1.70;;;;;;;;;;5069781;28;20038;-43
2022/02/05 17:23:43;;;;;;;8.00;1.35;;;;;;;;;;5071224;28;20031;-44
2022/02/05 17:26:14;;;;;;;5.00;1.80;;;;;;;;;;5070290;28;20029;-44
2022/02/05 17:28:40;;;;;;;5.22;1.55;;;;;;;;;;5074294;28;20056;-47
2022/02/05 17:31:06;;;;;;;8.55;1.50;;;;;;;;;;5073742;28;20025;-46
2022/02/05 17:33:32;;;;;;;5.32;1.70;;;;;;;;;;5073365;28;20374;-44
2022/02/05 17:36:02;;;;;;;5.13;2.00;;;;;;;;;;5070996;28;20599;-44
2022/02/05 17:38:29;;;;;;;6.18;1.50;;;;;;;;;;5074419;28;20523;-48
2022/02/05 17:40:56;;;;;;;7.65;2.25;;;;;;;;;;5074851;28;20074;-47
2022/02/05 17:43:23;;;;;;;4.47;1.60;;;;;;;;;;5074290;28;20020;-44
2022/02/05 17:45:49;;;;;;;6.22;1.88;;;;;;;;;;5059339;28;20028;-43
2022/02/05 17:48:16;;;;;;;4.25;1.33;;;;;;;;;;5073873;28;20025;-43
2022/02/05 17:50:42;;;;;;;8.60;1.50;;;;;;;;;;5074702;28;20131;-43
2022/02/05 17:53:08;;;;;;;7.68;1.92;;;;;;;;;;5073811;28;20105;-44
2022/02/05 17:55:34;;;;;;;10.55;1.83;;;;;;;;;;5074828;28;20021;-44
2022/02/05 17:58:02;;;;;;;4.85;1.75;;;;;;;;;;5073683;28;20359;-46
2022/02/05 18:00:31;;;;;;;7.13;1.95;;;;;;;;;;5074143;28;20031;-47
2022/02/05 18:03:04;;;;;;;4.05;1.40;;;;;;;;;;5073565;28;20509;-48
2022/02/05 18:13:08;;;;;;;4.97;1.40;;;;;;;;;;5073371;28;20462;-44